createdAt,value
2022-12-25T00:02:01.850Z,18.44
2022-12-25T00:07:05.383Z,18.40
2022-12-25T00:12:08.899Z,18.41
2022-12-25T00:17:12.441Z,18.59
2022-12-25T00:22:15.960Z,18.40
2022-12-25T00:27:19.409Z,18.35
2022-12-25T00:32:22.996Z,18.31
2022-12-25T00:37:26.534Z,18.29
2022-12-25T00:42:30.089Z,18.35
2022-12-25T00:47:33.594Z,18.41
2022-12-25T00:52:37.130Z,18.29
2022-12-25T00:57:40.593Z,18.23
2022-12-25T01:02:44.212Z,18.24
2022-12-25T01:07:50.613Z,18.20
2022-12-25T01:12:54.162Z,18.19
2022-12-25T01:17:57.674Z,18.15
2022-12-25T01:23:01.263Z,18.13
2022-12-25T01:28:04.820Z,18.10
2022-12-25T01:33:08.294Z,18.07
2022-12-25T01:38:11.803Z,18.12
2022-12-25T01:43:18.649Z,18.15
2022-12-25T01:48:22.402Z,18.06
2022-12-25T01:53:25.878Z,18.08
2022-12-25T01:58:29.420Z,18.05
2022-12-25T02:03:32.985Z,18.00
2022-12-25T02:08:41.517Z,17.99
2022-12-25T02:13:45.125Z,18.01
2022-12-25T02:18:48.696Z,18.04
2022-12-25T02:23:52.241Z,18.02
2022-12-25T02:28:55.729Z,18.02
2022-12-25T02:34:05.351Z,18.00
2022-12-25T02:39:26.470Z,17.98
2022-12-25T02:44:47.905Z,17.95
2022-12-25T02:50:09.334Z,17.93
2022-12-25T02:55:30.853Z,17.91
2022-12-25T03:00:52.371Z,17.89
2022-12-25T03:06:16.009Z,17.84
2022-12-25T03:11:37.717Z,17.82
2022-12-25T03:16:54.009Z,17.77
2022-12-25T03:22:15.328Z,17.75
2022-12-25T03:27:18.812Z,17.74
2022-12-25T03:32:22.326Z,17.74
2022-12-25T03:37:42.885Z,17.71
2022-12-25T03:43:00.253Z,17.73
2022-12-25T03:48:21.418Z,17.68
2022-12-25T03:53:42.871Z,17.67
2022-12-25T03:59:22.911Z,17.66
2022-12-25T04:04:44.964Z,17.83
2022-12-25T04:10:06.528Z,17.84
2022-12-25T04:15:28.070Z,17.76
2022-12-25T04:20:49.316Z,17.66
2022-12-25T04:26:10.774Z,17.61
2022-12-25T04:31:32.248Z,17.60
2022-12-25T04:36:35.825Z,17.55
2022-12-25T04:41:39.305Z,17.55
2022-12-25T04:46:42.981Z,17.54
2022-12-25T04:51:47.759Z,17.55
2022-12-25T04:56:51.255Z,17.73
2022-12-25T05:01:56.079Z,17.59
2022-12-25T05:06:59.786Z,17.50
2022-12-25T05:12:03.365Z,17.53
2022-12-25T05:17:08.031Z,17.54
2022-12-25T05:22:14.638Z,17.51
2022-12-25T05:27:18.261Z,17.49
2022-12-25T05:32:21.738Z,17.51
2022-12-25T05:37:25.303Z,17.52
2022-12-25T05:42:28.844Z,17.53
2022-12-25T05:47:32.396Z,17.52
2022-12-25T05:52:35.955Z,17.53
2022-12-25T05:57:39.483Z,17.51
2022-12-25T06:02:43.128Z,17.50
2022-12-25T06:07:46.940Z,17.48
2022-12-25T06:12:50.494Z,17.42
2022-12-25T06:17:54.012Z,17.38
2022-12-25T06:22:57.543Z,17.37
2022-12-25T06:28:01.164Z,17.34
2022-12-25T06:33:04.717Z,17.35
2022-12-25T06:38:08.232Z,17.30
2022-12-25T06:43:13.107Z,17.32
2022-12-25T06:48:16.630Z,17.28
2022-12-25T06:53:20.293Z,17.31
2022-12-25T06:58:23.833Z,17.33
2022-12-25T07:03:27.406Z,17.42
2022-12-25T07:08:31.140Z,17.41
2022-12-25T07:13:34.713Z,17.44
2022-12-25T07:18:38.228Z,17.38
2022-12-25T07:23:41.740Z,17.35
2022-12-25T07:28:47.091Z,17.37
2022-12-25T07:33:50.636Z,17.34
2022-12-25T07:38:54.290Z,17.43
2022-12-25T07:43:58.163Z,17.40
2022-12-25T07:49:01.636Z,17.42
2022-12-25T07:54:05.191Z,17.40
2022-12-25T07:59:08.697Z,17.45
2022-12-25T08:04:12.379Z,17.40
2022-12-25T08:09:15.883Z,17.34
2022-12-25T08:14:19.377Z,17.40
2022-12-25T08:19:22.911Z,17.43
2022-12-25T08:24:26.425Z,17.42
2022-12-25T08:29:29.977Z,17.34
2022-12-25T08:34:33.461Z,17.38
2022-12-25T08:39:36.941Z,17.36
2022-12-25T08:44:40.421Z,17.38
2022-12-25T08:49:43.898Z,17.41
2022-12-25T08:54:47.985Z,17.41
2022-12-25T08:59:51.565Z,17.45
2022-12-25T09:04:55.131Z,17.40
2022-12-25T09:09:58.616Z,17.33
2022-12-25T09:15:02.128Z,17.34
2022-12-25T09:20:05.817Z,17.40
2022-12-25T09:25:09.339Z,17.53
2022-12-25T09:30:12.966Z,17.39
2022-12-25T09:35:17.610Z,17.36
2022-12-25T09:40:21.128Z,17.29
2022-12-25T09:45:24.756Z,17.28
2022-12-25T09:50:28.267Z,17.33
2022-12-25T09:55:31.794Z,17.41
2022-12-25T10:00:35.301Z,17.53
2022-12-25T10:05:38.768Z,17.38
2022-12-25T10:10:42.315Z,17.48
2022-12-25T10:15:46.222Z,17.39
2022-12-25T10:20:49.848Z,17.40
2022-12-25T10:25:54.430Z,17.26
2022-12-25T10:30:57.958Z,17.48
2022-12-25T10:36:02.607Z,17.63
2022-12-25T10:41:06.340Z,17.44
2022-12-25T10:46:09.898Z,17.38
2022-12-25T10:51:13.554Z,17.36
2022-12-25T10:56:17.097Z,17.42
2022-12-25T11:01:20.806Z,17.30
2022-12-25T11:06:25.104Z,17.22
2022-12-25T11:11:28.595Z,17.24
2022-12-25T11:16:32.170Z,17.23
2022-12-25T11:21:35.854Z,17.26
2022-12-25T11:26:40.459Z,17.27
2022-12-25T11:31:44.002Z,17.29
2022-12-25T11:36:47.510Z,17.44
2022-12-25T11:41:50.997Z,17.39
2022-12-25T11:46:55.155Z,17.20
2022-12-25T11:51:58.874Z,17.18
2022-12-25T11:57:02.397Z,17.22
2022-12-25T12:02:05.943Z,17.25
2022-12-25T12:07:09.573Z,17.22
2022-12-25T12:12:13.154Z,17.18
2022-12-25T12:17:16.760Z,17.21
2022-12-25T12:22:20.254Z,17.43
2022-12-25T12:27:23.761Z,17.44
2022-12-25T12:32:27.274Z,17.53
2022-12-25T12:37:30.925Z,17.41
2022-12-25T12:42:34.403Z,17.50
2022-12-25T12:47:37.939Z,17.45
2022-12-25T12:52:42.722Z,17.48
2022-12-25T12:57:46.622Z,17.42
2022-12-25T13:02:50.260Z,17.57
2022-12-25T13:07:54.294Z,17.34
2022-12-25T13:12:57.775Z,17.10
2022-12-25T13:18:01.303Z,17.09
2022-12-25T13:23:04.802Z,17.06
2022-12-25T13:28:08.331Z,17.03
2022-12-25T13:33:11.871Z,17.04
2022-12-25T13:38:15.427Z,17.05
2022-12-25T13:43:18.953Z,17.05
2022-12-25T13:48:24.131Z,17.02
2022-12-25T13:53:27.656Z,16.99
2022-12-25T13:58:31.297Z,17.14
2022-12-25T14:03:34.954Z,17.13
2022-12-25T14:08:38.618Z,16.98
2022-12-25T14:13:42.124Z,16.96
2022-12-25T14:18:45.641Z,17.01
2022-12-25T14:23:49.188Z,16.99
2022-12-25T14:28:52.703Z,16.95
2022-12-25T14:33:56.275Z,16.99
2022-12-25T14:38:59.795Z,16.97
2022-12-25T14:44:03.336Z,17.06
2022-12-25T14:49:08.905Z,17.05
2022-12-25T14:54:12.437Z,17.09
2022-12-25T14:59:16.317Z,17.09
2022-12-25T15:04:20.596Z,17.00
2022-12-25T15:09:24.185Z,16.97
2022-12-25T15:14:27.670Z,16.92
2022-12-25T15:19:37.025Z,16.79
2022-12-25T15:24:41.506Z,16.96
2022-12-25T15:30:09.304Z,17.01
2022-12-25T15:35:08.731Z,17.04
2022-12-25T15:40:12.335Z,17.05
2022-12-25T15:45:15.899Z,17.14
2022-12-25T15:50:19.818Z,17.22
2022-12-25T15:55:23.379Z,17.27
2022-12-25T16:00:26.915Z,17.29
2022-12-25T16:05:30.758Z,17.29
2022-12-25T16:10:38.723Z,17.25
2022-12-25T16:15:42.822Z,17.37
2022-12-25T16:20:46.728Z,17.41
2022-12-25T16:25:50.219Z,17.49
2022-12-25T16:30:53.823Z,17.54
2022-12-25T16:35:57.311Z,17.57
2022-12-25T16:41:00.891Z,17.52
2022-12-25T16:46:04.534Z,17.46
2022-12-25T16:51:08.178Z,17.46
2022-12-25T16:56:11.787Z,17.45
2022-12-25T17:01:15.307Z,17.40
2022-12-25T17:06:19.853Z,17.42
2022-12-25T17:11:27.156Z,17.47
2022-12-25T17:16:30.776Z,17.49
2022-12-25T17:21:34.895Z,17.55
2022-12-25T17:26:38.450Z,17.61
2022-12-25T17:31:42.083Z,17.61
2022-12-25T17:36:45.775Z,17.68
2022-12-25T17:41:49.325Z,17.95
2022-12-25T17:46:53.026Z,17.93
2022-12-25T17:51:56.761Z,18.24
2022-12-25T17:57:00.292Z,18.33
2022-12-25T18:02:03.977Z,18.38
2022-12-25T18:07:07.560Z,18.42
2022-12-25T18:12:11.232Z,18.41
2022-12-25T18:17:14.942Z,18.41
2022-12-25T18:22:19.198Z,18.47
2022-12-25T18:27:22.777Z,18.49
2022-12-25T18:32:28.161Z,18.47
2022-12-25T18:37:39.445Z,18.53
2022-12-25T18:42:46.487Z,18.57
2022-12-25T18:47:50.012Z,18.61
2022-12-25T18:52:53.474Z,18.63
2022-12-25T18:57:56.967Z,18.61
2022-12-25T19:03:00.898Z,18.64
2022-12-25T19:08:04.800Z,18.67
2022-12-25T19:13:08.392Z,18.66
2022-12-25T19:18:12.344Z,18.67
2022-12-25T19:23:16.018Z,18.69
2022-12-25T19:28:22.356Z,18.69
2022-12-25T19:33:26.421Z,18.69
2022-12-25T19:38:30.163Z,18.78
2022-12-25T19:43:33.764Z,18.74
2022-12-25T19:48:37.364Z,18.72
2022-12-25T19:53:41.153Z,18.71
2022-12-25T19:58:44.952Z,18.69
2022-12-25T20:03:48.460Z,18.81
2022-12-25T20:08:52.374Z,18.76
2022-12-25T20:13:55.972Z,18.73
2022-12-25T20:18:59.523Z,18.82
2022-12-25T20:24:03.052Z,18.75
2022-12-25T20:29:06.618Z,18.82
2022-12-25T20:34:10.611Z,18.78
2022-12-25T20:39:14.235Z,18.75
2022-12-25T20:44:17.942Z,18.77
2022-12-25T20:49:21.476Z,18.92
2022-12-25T20:54:24.990Z,18.81
2022-12-25T20:59:33.513Z,18.79
2022-12-25T21:04:40.675Z,18.12
2022-12-25T21:09:44.175Z,17.62
2022-12-25T21:14:47.634Z,17.53
2022-12-25T21:19:51.238Z,17.43
2022-12-25T21:24:54.809Z,17.45
2022-12-25T21:29:58.967Z,17.40
2022-12-25T21:35:19.197Z,17.43
2022-12-25T21:40:22.711Z,17.41
2022-12-25T21:45:26.223Z,17.27
2022-12-25T21:50:47.491Z,17.22
2022-12-25T21:55:51.014Z,17.18
2022-12-25T22:00:54.688Z,17.10
2022-12-25T22:06:21.122Z,17.18
2022-12-25T22:11:43.064Z,17.28
2022-12-25T22:17:04.435Z,18.28
2022-12-25T22:22:07.912Z,18.53
2022-12-25T22:27:11.435Z,18.76
2022-12-25T22:32:14.929Z,18.63
2022-12-25T22:37:18.426Z,18.59
2022-12-25T22:42:22.334Z,18.70
2022-12-25T22:47:25.877Z,18.67
2022-12-25T22:52:29.413Z,18.63
2022-12-25T22:57:32.936Z,18.62
2022-12-25T23:02:36.680Z,18.59
2022-12-25T23:07:41.709Z,18.61
2022-12-25T23:13:02.753Z,18.62
2022-12-25T23:18:29.306Z,18.63
2022-12-25T23:23:50.452Z,18.60
2022-12-25T23:29:11.897Z,18.68
2022-12-25T23:34:15.464Z,18.62
2022-12-25T23:39:18.927Z,18.60
2022-12-25T23:44:22.410Z,18.58
2022-12-25T23:49:26.200Z,18.62
2022-12-25T23:54:29.736Z,18.56
2022-12-25T23:59:33.257Z,18.60
